Time;durP1;ratioP1;P1;durP2;ratioP2;P2;SDS_P1;SDS_P2;PMS_P1;PMS_P2;Temp;Humidity;BMP_temperature;BMP_pressure;BME280_temperature;BME280_humidity;BME280_pressure;Samples;Min_cycle;Max_cycle;Signal;HPM_P1;HPM_P2
2023/06/16 00:01:38;;;;;;;5.03;3.40;;;14.30;61.50;;;;;;5023850;28;20033;-65
2023/06/16 00:04:05;;;;;;;8.75;3.85;;;14.20;61.50;;;;;;5040177;28;20041;-65
2023/06/16 00:06:31;;;;;;;5.82;3.78;;;14.20;61.60;;;;;;5020164;28;21242;-65
2023/06/16 00:08:58;;;;;;;8.02;3.83;;;14.20;61.80;;;;;;5032856;28;20029;-65
2023/06/16 00:11:26;;;;;;;7.35;3.50;;;14.20;61.90;;;;;;5030800;28;20048;-65
2023/06/16 00:13:52;;;;;;;8.10;4.25;;;14.20;62.10;;;;;;5015353;28;20040;-65
2023/06/16 00:16:21;;;;;;;6.85;4.13;;;14.10;62.20;;;;;;5026244;28;20087;-65
2023/06/16 00:18:57;;;;;;;8.52;4.25;;;14.10;62.30;;;;;;5031655;28;20045;-65
2023/06/16 00:21:35;;;;;;;6.05;3.78;;;14.10;62.70;;;;;;5030417;28;20088;-65
2023/06/16 00:24:02;;;;;;;6.88;3.50;;;14.10;63.40;;;;;;5039670;28;21136;-65
2023/06/16 00:26:28;;;;;;;6.28;4.05;;;14.10;62.70;;;;;;5018918;28;20363;-65
2023/06/16 00:28:53;;;;;;;6.63;4.10;;;14.10;62.90;;;;;;5047939;28;20036;-64
2023/06/16 00:31:19;;;;;;;6.25;3.90;;;14.10;63.00;;;;;;5026929;28;20510;-65
2023/06/16 00:33:45;;;;;;;7.57;3.50;;;14.00;63.00;;;;;;5043199;28;20100;-65
2023/06/16 00:36:10;;;;;;;3.90;3.47;;;14.00;63.20;;;;;;5028473;28;20052;-65
2023/06/16 00:38:36;;;;;;;5.53;4.00;;;14.00;63.30;;;;;;5033024;28;20042;-65
2023/06/16 00:41:02;;;;;;;7.25;4.00;;;13.90;63.40;;;;;;5027216;28;20053;-65
2023/06/16 00:43:27;;;;;;;7.53;4.13;;;13.90;63.60;;;;;;5036274;28;20132;-65
2023/06/16 00:45:53;;;;;;;9.93;4.22;;;13.80;64.10;;;;;;5024960;28;20095;-65
2023/06/16 00:48:19;;;;;;;6.25;4.57;;;13.80;64.30;;;;;;5030808;28;20084;-65
2023/06/16 00:50:46;;;;;;;5.90;4.25;;;13.70;64.40;;;;;;5026947;28;20085;-65
2023/06/16 00:53:11;;;;;;;6.53;4.78;;;13.70;64.80;;;;;;5034510;28;20118;-65
2023/06/16 00:55:37;;;;;;;6.60;4.40;;;13.60;65.10;;;;;;5018870;28;20033;-65
2023/06/16 00:58:04;;;;;;;7.80;4.72;;;13.60;65.70;;;;;;5033216;28;20037;-65
2023/06/16 01:00:36;;;;;;;8.48;4.95;;;13.60;66.20;;;;;;5019870;28;20051;-65
2023/06/16 01:03:05;;;;;;;8.38;4.20;;;13.60;65.80;;;;;;5029562;28;20051;-67
2023/06/16 01:05:32;;;;;;;7.88;4.07;;;13.60;65.80;;;;;;5015093;28;20041;-66
2023/06/16 01:08:12;;;;;;;7.10;4.30;;;13.70;65.70;;;;;;5032690;28;20036;-65
2023/06/16 01:10:49;;;;;;;7.40;4.53;;;13.60;66.10;;;;;;5020638;28;20041;-65
2023/06/16 01:13:21;;;;;;;7.85;4.75;;;13.60;66.60;;;;;;5030171;28;20354;-65
2023/06/16 01:15:48;;;;;;;6.82;4.50;;;13.60;65.70;;;;;;5014818;28;20099;-65
2023/06/16 01:18:15;;;;;;;6.15;4.22;;;13.60;65.70;;;;;;5026288;28;20040;-65
2023/06/16 01:21:05;;;;;;;6.13;4.00;;;13.60;65.80;;;;;;5011048;28;20053;-65
2023/06/16 01:24:05;;;;;;;5.97;3.93;;;13.50;66.00;;;;;;5041420;28;20136;-65
2023/06/16 01:26:32;;;;;;;4.93;4.30;;;13.50;67.20;;;;;;5012318;28;20303;-65
2023/06/16 01:29:00;;;;;;;6.05;4.15;;;13.50;65.80;;;;;;5033284;28;20037;-65
2023/06/16 01:31:31;;;;;;;8.30;4.35;;;13.50;66.60;;;;;;5013781;28;20098;-64
2023/06/16 01:34:01;;;;;;;6.75;4.18;;;13.50;66.50;;;;;;5027662;28;20045;-65
2023/06/16 01:36:31;;;;;;;8.07;4.85;;;13.40;67.00;;;;;;5009690;28;20037;-65
2023/06/16 01:39:00;;;;;;;5.93;4.65;;;13.30;67.00;;;;;;5033717;28;20122;-65
2023/06/16 01:41:26;;;;;;;11.52;4.53;;;13.20;67.20;;;;;;5011653;28;20057;-65
2023/06/16 01:43:52;;;;;;;8.93;4.47;;;13.20;67.80;;;;;;5012874;28;20037;-65
2023/06/16 01:46:19;;;;;;;4.93;3.95;;;13.20;67.80;;;;;;4994956;28;20037;-66
2023/06/16 01:48:45;;;;;;;8.82;4.57;;;13.10;68.20;;;;;;5029991;28;20084;-64
2023/06/16 01:51:12;;;;;;;6.38;4.43;;;13.10;68.70;;;;;;5009186;28;20072;-65
2023/06/16 01:53:37;;;;;;;6.07;4.43;;;13.10;68.80;;;;;;5026539;28;20034;-65
2023/06/16 01:56:03;;;;;;;8.45;5.05;;;13.10;68.50;;;;;;5018167;28;20048;-65
2023/06/16 01:58:29;;;;;;;8.35;4.65;;;13.10;68.50;;;;;;5026235;28;20044;-65
2023/06/16 02:00:59;;;;;;;9.57;4.95;;;13.10;68.80;;;;;;5016472;28;20068;-65
2023/06/16 02:03:31;;;;;;;8.57;4.93;;;13.00;69.20;;;;;;5024647;28;20155;-66
2023/06/16 02:05:59;;;;;;;7.03;4.57;;;13.00;69.20;;;;;;5030409;28;20504;-65
2023/06/16 02:08:26;;;;;;;6.88;4.65;;;12.90;69.10;;;;;;5019235;28;20037;-66
2023/06/16 02:10:54;;;;;;;6.68;4.95;;;13.00;69.30;;;;;;5026947;28;20033;-65
2023/06/16 02:13:20;;;;;;;11.00;5.03;;;13.00;69.40;;;;;;5030188;28;20098;-65
2023/06/16 02:15:47;;;;;;;7.97;4.63;;;12.90;69.70;;;;;;4991034;28;21058;-65
2023/06/16 02:18:12;;;;;;;6.32;5.00;;;12.90;69.90;;;;;;5018914;28;20036;-65
2023/06/16 02:20:39;;;;;;;9.65;5.25;;;12.80;70.10;;;;;;5010375;28;20045;-66
2023/06/16 02:23:05;;;;;;;8.85;5.20;;;12.80;70.40;;;;;;5027300;28;20037;-64
2023/06/16 02:25:31;;;;;;;9.20;4.65;;;12.80;70.70;;;;;;5005296;28;20038;-65
2023/06/16 02:27:56;;;;;;;6.75;5.00;;;12.90;70.70;;;;;;5028769;28;20495;-64
2023/06/16 02:30:22;;;;;;;7.55;5.50;;;12.80;70.60;;;;;;4995437;28;20068;-65
2023/06/16 02:32:48;;;;;;;6.55;5.13;;;12.80;70.80;;;;;;5030222;28;20072;-65
2023/06/16 02:35:14;;;;;;;7.18;5.25;;;12.80;71.20;;;;;;5020205;28;21015;-65
2023/06/16 02:37:41;;;;;;;6.70;4.85;;;12.70;71.20;;;;;;5009929;28;20077;-65
2023/06/16 02:40:08;;;;;;;7.93;4.82;;;12.70;71.20;;;;;;5012058;28;20037;-65
2023/06/16 02:42:34;;;;;;;7.68;5.45;;;12.70;71.30;;;;;;5023626;28;20036;-64
2023/06/16 02:45:00;;;;;;;8.55;5.15;;;12.70;71.40;;;;;;5016112;28;20037;-66
2023/06/16 02:47:26;;;;;;;7.28;5.00;;;12.60;71.70;;;;;;5015972;28;20056;-64
2023/06/16 02:49:54;;;;;;;6.40;4.82;;;12.60;72.00;;;;;;5023014;28;20049;-65
2023/06/16 02:52:20;;;;;;;11.90;5.70;;;12.60;72.30;;;;;;5016690;28;20476;-64
2023/06/16 02:54:46;;;;;;;8.85;5.60;;;12.60;72.40;;;;;;5000669;28;20041;-65
2023/06/16 02:57:11;;;;;;;11.95;5.40;;;12.60;72.60;;;;;;5013554;28;20045;-65
2023/06/16 02:59:37;;;;;;;7.90;4.90;;;12.50;72.70;;;;;;5010927;28;20707;-64
2023/06/16 03:02:03;;;;;;;9.27;5.53;;;12.60;72.90;;;;;;5004807;28;20076;-65
2023/06/16 03:04:28;;;;;;;6.85;4.65;;;12.50;73.10;;;;;;5024257;28;20040;-65
2023/06/16 03:06:57;;;;;;;7.40;5.13;;;12.50;73.30;;;;;;5001386;28;20130;-65
2023/06/16 03:09:24;;;;;;;9.63;5.13;;;12.40;73.50;;;;;;5025175;28;20121;-65
2023/06/16 03:11:50;;;;;;;7.35;5.47;;;12.50;73.60;;;;;;5004976;28;20045;-65
2023/06/16 03:14:16;;;;;;;6.70;5.13;;;12.50;73.70;;;;;;5021518;28;20099;-65
2023/06/16 03:16:42;;;;;;;7.55;5.72;;;12.50;73.80;;;;;;5008602;28;20480;-65
2023/06/16 03:19:07;;;;;;;7.05;5.03;;;12.40;73.90;;;;;;5023381;28;20082;-65
2023/06/16 03:21:33;;;;;;;9.15;5.32;;;12.40;74.10;;;;;;5004752;28;20049;-66
2023/06/16 03:23:58;;;;;;;8.52;5.60;;;12.50;74.20;;;;;;5015592;28;20453;-65
2023/06/16 03:26:25;;;;;;;8.23;5.82;;;12.50;74.30;;;;;;5004591;28;20425;-65
2023/06/16 03:28:50;;;;;;;12.77;6.20;;;12.50;74.60;;;;;;5021088;28;20144;-65
2023/06/16 03:31:17;;;;;;;12.82;6.65;;;12.50;74.60;;;;;;5007303;28;20198;-64
2023/06/16 03:33:43;;;;;;;9.02;6.40;;;12.50;75.10;;;;;;5021298;28;20112;-65
2023/06/16 03:36:09;;;;;;;10.48;6.40;;;12.60;75.30;;;;;;5005255;28;20366;-65
2023/06/16 03:38:34;;;;;;;9.65;6.60;;;12.80;75.60;;;;;;5016704;28;21135;-64
2023/06/16 03:41:00;;;;;;;8.57;7.05;;;12.80;75.40;;;;;;5005111;28;20037;-65
2023/06/16 03:43:25;;;;;;;9.65;6.47;;;12.80;75.60;;;;;;5014953;28;20372;-65
2023/06/16 03:45:51;;;;;;;8.85;5.50;;;12.80;76.10;;;;;;4999493;28;20167;-65
2023/06/16 03:48:17;;;;;;;9.40;6.40;;;12.80;76.10;;;;;;5015545;28;20079;-65
2023/06/16 03:50:42;;;;;;;8.88;5.90;;;12.90;75.60;;;;;;4981070;28;20059;-65
2023/06/16 03:53:08;;;;;;;9.82;6.10;;;13.00;75.50;;;;;;5018169;28;20445;-65
2023/06/16 03:55:33;;;;;;;8.98;6.28;;;13.10;75.40;;;;;;4992362;28;20036;-65
2023/06/16 03:57:59;;;;;;;9.90;6.03;;;13.10;75.20;;;;;;5013611;28;20433;-65
2023/06/16 04:00:25;;;;;;;8.63;5.95;;;13.10;75.20;;;;;;4995083;28;21161;-65
2023/06/16 04:02:50;;;;;;;9.18;6.68;;;13.10;75.20;;;;;;5014297;28;20983;-65
2023/06/16 04:05:17;;;;;;;10.30;6.55;;;13.20;75.40;;;;;;4996940;28;20033;-65
2023/06/16 04:07:43;;;;;;;9.93;6.28;;;13.20;75.50;;;;;;5011471;28;20838;-65
2023/06/16 04:10:09;;;;;;;9.85;6.93;;;13.40;75.50;;;;;;5002070;28;20044;-65
2023/06/16 04:12:34;;;;;;;10.23;7.75;;;13.50;75.40;;;;;;5001820;28;20105;-65
2023/06/16 04:15:00;;;;;;;11.18;7.38;;;13.60;75.40;;;;;;5003805;28;20041;-65
2023/06/16 04:17:25;;;;;;;13.07;7.78;;;13.60;75.60;;;;;;4987818;28;20208;-65
2023/06/16 04:19:51;;;;;;;11.77;8.07;;;13.60;75.70;;;;;;5003225;28;20045;-65
2023/06/16 04:22:17;;;;;;;15.15;8.75;;;13.60;75.80;;;;;;4996743;28;20059;-66
2023/06/16 04:24:42;;;;;;;11.70;8.48;;;13.70;76.90;;;;;;4993565;28;20037;-65
2023/06/16 04:27:08;;;;;;;11.18;8.30;;;13.60;76.60;;;;;;5025809;28;20040;-65
2023/06/16 04:29:41;;;;;;;12.95;9.07;;;13.60;77.10;;;;;;5041110;28;20029;-65
2023/06/16 04:32:11;;;;;;;13.98;9.65;;;13.70;77.40;;;;;;5042665;28;20079;-65
2023/06/16 04:34:38;;;;;;;14.85;9.77;;;13.80;77.70;;;;;;5045086;28;20489;-65
2023/06/16 04:37:04;;;;;;;15.43;10.27;;;13.80;77.90;;;;;;5041431;28;20067;-65
2023/06/16 04:39:30;;;;;;;16.90;11.73;;;13.90;78.00;;;;;;5044837;28;20028;-65
2023/06/16 04:41:56;;;;;;;15.77;10.73;;;14.00;78.10;;;;;;5043265;28;20476;-65
2023/06/16 04:44:22;;;;;;;16.17;10.15;;;14.20;78.30;;;;;;5042090;28;20033;-65
2023/06/16 04:46:47;;;;;;;13.23;9.98;;;14.30;78.40;;;;;;5037486;28;20033;-66
2023/06/16 04:49:13;;;;;;;17.92;10.70;;;14.40;79.30;;;;;;5036981;28;20045;-65
2023/06/16 04:51:39;;;;;;;14.15;10.05;;;14.50;78.70;;;;;;5028136;28;20162;-65
2023/06/16 04:54:04;;;;;;;13.13;9.82;;;14.60;78.90;;;;;;5041321;28;20080;-65
2023/06/16 04:56:30;;;;;;;16.52;10.48;;;14.70;78.80;;;;;;5045267;28;20457;-65
2023/06/16 04:58:55;;;;;;;16.38;11.10;;;14.90;78.80;;;;;;5038802;28;20085;-66
2023/06/16 05:01:26;;;;;;;15.90;11.20;;;15.00;78.50;;;;;;5030860;28;20046;-65
2023/06/16 05:03:51;;;;;;;15.98;11.63;;;15.10;78.30;;;;;;5037317;28;20033;-65
2023/06/16 05:06:17;;;;;;;21.42;12.35;;;15.20;78.30;;;;;;5033590;28;20047;-65
2023/06/16 05:08:43;;;;;;;21.35;13.88;;;15.40;78.70;;;;;;5038860;28;20124;-65
2023/06/16 05:11:08;;;;;;;16.90;12.95;;;15.50;79.00;;;;;;5032484;28;20627;-65
2023/06/16 05:13:34;;;;;;;17.55;12.32;;;15.70;79.20;;;;;;5038066;28;20194;-66
2023/06/16 05:16:00;;;;;;;16.85;11.80;;;15.90;79.20;;;;;;5044669;28;20029;-66
2023/06/16 05:18:25;;;;;;;15.88;12.25;;;16.00;79.10;;;;;;5034698;28;20044;-66
2023/06/16 05:20:51;;;;;;;17.30;12.68;;;16.20;79.00;;;;;;5048141;28;20052;-66
2023/06/16 05:23:16;;;;;;;17.00;12.30;;;16.40;79.10;;;;;;5032610;28;20037;-66
2023/06/16 05:25:42;;;;;;;17.85;12.02;;;16.50;78.70;;;;;;5033863;28;20045;-66
2023/06/16 05:28:08;;;;;;;15.93;11.88;;;16.70;78.50;;;;;;5039969;28;20037;-66
2023/06/16 05:30:33;;;;;;;18.67;13.43;;;16.90;78.30;;;;;;5043248;28;20167;-65
2023/06/16 05:32:59;;;;;;;20.25;13.65;;;17.10;77.80;;;;;;5041139;28;20055;-67
2023/06/16 05:35:24;;;;;;;14.38;11.43;;;17.30;77.50;;;;;;5041317;28;20106;-66
2023/06/16 05:37:50;;;;;;;18.25;12.63;;;17.50;76.90;;;;;;5030096;28;20044;-67
2023/06/16 05:40:15;;;;;;;18.75;12.75;;;17.60;76.30;;;;;;5039381;28;20048;-67
2023/06/16 05:42:41;;;;;;;14.85;11.93;;;17.70;75.90;;;;;;5032991;28;20143;-66
2023/06/16 05:45:07;;;;;;;19.08;12.35;;;17.90;75.40;;;;;;5014306;28;20189;-66
2023/06/16 05:47:32;;;;;;;16.27;11.60;;;18.10;74.70;;;;;;5040197;28;20072;-66
2023/06/16 05:49:59;;;;;;;15.50;11.60;;;18.20;74.30;;;;;;5033639;28;20051;-66
2023/06/16 05:52:25;;;;;;;15.45;10.48;;;18.30;73.80;;;;;;5032973;28;20045;-66
2023/06/16 05:54:51;;;;;;;13.38;10.00;;;18.50;73.10;;;;;;5033914;28;20465;-66
2023/06/16 05:57:16;;;;;;;14.40;11.32;;;18.60;72.40;;;;;;5040070;28;20045;-66
2023/06/16 05:59:42;;;;;;;12.45;8.68;;;18.70;72.20;;;;;;5035959;28;20037;-66
2023/06/16 06:02:07;;;;;;;11.20;9.05;;;18.90;71.70;;;;;;5033039;28;20107;-67
2023/06/16 06:04:33;;;;;;;13.38;9.20;;;19.10;70.90;;;;;;5035401;28;20037;-67
2023/06/16 06:07:00;;;;;;;14.00;10.65;;;19.30;70.00;;;;;;5035678;28;20038;-67
2023/06/16 06:09:26;;;;;;;12.50;9.20;;;19.50;69.60;;;;;;5029154;28;20124;-67
2023/06/16 06:11:52;;;;;;;11.80;10.05;;;19.60;69.00;;;;;;5044909;28;20532;-67
2023/06/16 06:14:18;;;;;;;10.88;9.70;;;19.60;68.80;;;;;;5036882;28;20043;-67
2023/06/16 06:16:44;;;;;;;13.07;8.75;;;19.80;69.30;;;;;;5016217;28;20174;-67
2023/06/16 06:19:09;;;;;;;12.43;9.30;;;19.80;67.90;;;;;;5057277;28;20691;-68
2023/06/16 06:21:35;;;;;;;12.63;8.98;;;20.00;67.40;;;;;;5029592;28;20580;-67
2023/06/16 06:24:01;;;;;;;10.15;7.10;;;20.10;66.70;;;;;;5038034;28;20098;-68
2023/06/16 06:26:27;;;;;;;9.55;7.97;;;20.30;66.00;;;;;;5039498;28;20048;-68
2023/06/16 06:28:52;;;;;;;9.07;7.78;;;20.60;65.10;;;;;;5035251;28;20049;-68
2023/06/16 06:31:18;;;;;;;8.68;6.88;;;20.60;64.40;;;;;;5040172;28;20128;-68
2023/06/16 06:33:45;;;;;;;9.32;6.88;;;20.70;63.70;;;;;;5043969;28;20246;-68
2023/06/16 06:36:11;;;;;;;7.55;6.85;;;21.00;63.00;;;;;;5040774;28;20042;-68
2023/06/16 06:38:37;;;;;;;9.63;7.57;;;21.10;62.20;;;;;;5030133;28;20033;-69
2023/06/16 06:41:02;;;;;;;8.60;6.10;;;21.20;61.80;;;;;;5036467;28;20102;-68
2023/06/16 06:43:28;;;;;;;8.00;6.30;;;21.50;61.40;;;;;;5030005;28;20033;-69
2023/06/16 06:45:54;;;;;;;9.43;7.93;;;21.70;60.60;;;;;;5034396;28;20029;-69
2023/06/16 06:48:20;;;;;;;10.55;7.75;;;21.90;60.10;;;;;;5039317;28;20052;-69
2023/06/16 06:50:47;;;;;;;9.10;8.18;;;22.00;59.80;;;;;;5037562;28;20044;-69
2023/06/16 06:53:13;;;;;;;10.10;7.40;;;22.10;59.00;;;;;;5044419;28;20642;-69
2023/06/16 06:55:38;;;;;;;13.32;7.75;;;22.20;58.70;;;;;;5022060;28;20151;-69
2023/06/16 06:58:04;;;;;;;9.10;6.43;;;22.30;58.40;;;;;;5037102;28;20078;-70
2023/06/16 07:00:30;;;;;;;9.20;7.38;;;22.60;57.90;;;;;;5033873;28;20044;-69
2023/06/16 07:02:55;;;;;;;8.32;6.38;;;22.60;57.60;;;;;;5041166;28;20039;-70
2023/06/16 07:05:21;;;;;;;9.20;7.95;;;22.90;57.00;;;;;;5045553;28;20037;-69
2023/06/16 07:07:46;;;;;;;7.38;6.68;;;23.00;56.40;;;;;;5041661;28;20045;-69
2023/06/16 07:10:12;;;;;;;7.40;5.50;;;23.10;55.90;;;;;;5030785;28;20029;-70
2023/06/16 07:12:37;;;;;;;6.47;5.88;;;23.30;55.40;;;;;;5041562;28;20090;-70
2023/06/16 07:15:03;;;;;;;6.75;6.15;;;23.50;54.70;;;;;;5031101;28;20045;-70
2023/06/16 07:17:30;;;;;;;10.48;7.47;;;23.70;53.70;;;;;;5044815;28;20550;-69
2023/06/16 07:19:56;;;;;;;8.48;6.18;;;23.80;53.20;;;;;;5038832;28;20045;-69
2023/06/16 07:22:22;;;;;;;8.15;6.15;;;23.70;52.60;;;;;;5042729;28;20036;-70
2023/06/16 07:24:47;;;;;;;7.93;5.97;;;23.90;52.20;;;;;;5016828;28;20152;-69
2023/06/16 07:27:13;;;;;;;6.72;5.43;;;24.10;51.70;;;;;;5039917;28;20110;-71
2023/06/16 07:29:38;;;;;;;7.50;5.85;;;24.30;50.80;;;;;;5043081;28;20037;-70
2023/06/16 07:32:06;;;;;;;6.80;5.30;;;24.50;50.00;;;;;;5045029;28;20048;-70
2023/06/16 07:34:31;;;;;;;8.52;6.43;;;24.80;49.20;;;;;;5042321;28;20043;-70
2023/06/16 07:36:57;;;;;;;5.22;4.72;;;24.90;48.40;;;;;;5038494;28;20449;-70
2023/06/16 07:39:24;;;;;;;7.32;5.20;;;25.00;48.00;;;;;;5039390;28;20140;-69
2023/06/16 07:41:49;;;;;;;6.30;4.88;;;25.20;47.80;;;;;;5046074;28;20040;-70
2023/06/16 07:44:15;;;;;;;5.88;5.25;;;25.30;47.90;;;;;;5040858;28;20504;-69
2023/06/16 07:46:45;;;;;;;5.78;4.50;;;25.60;47.20;;;;;;5041817;28;20083;-69
2023/06/16 07:49:12;;;;;;;5.20;4.70;;;25.70;46.90;;;;;;5039299;28;20389;-71
2023/06/16 07:51:38;;;;;;;7.13;6.43;;;25.80;46.60;;;;;;5026556;28;20594;-70
2023/06/16 07:54:03;;;;;;;5.72;4.60;;;25.90;45.40;;;;;;5028452;28;20045;-71
2023/06/16 07:56:29;;;;;;;6.30;5.32;;;26.10;45.30;;;;;;5032224;28;20041;-71
2023/06/16 07:58:54;;;;;;;5.28;4.55;;;26.20;45.00;;;;;;5043260;28;20037;-71
2023/06/16 08:01:20;;;;;;;6.78;5.43;;;26.40;44.80;;;;;;5036562;28;20408;-72
2023/06/16 08:03:46;;;;;;;5.13;4.60;;;26.30;44.50;;;;;;5041613;28;20475;-71
2023/06/16 08:06:12;;;;;;;5.30;4.80;;;26.30;44.30;;;;;;5039659;28;20076;-72
2023/06/16 08:08:37;;;;;;;6.72;4.75;;;26.60;43.90;;;;;;5040324;28;20033;-71
2023/06/16 08:11:03;;;;;;;6.38;5.03;;;26.90;43.50;;;;;;5044008;28;20629;-71
2023/06/16 08:13:29;;;;;;;6.35;5.32;;;26.90;43.30;;;;;;5041458;28;20174;-73
2023/06/16 08:15:56;;;;;;;4.97;4.47;;;27.20;42.80;;;;;;5037888;28;20064;-73
2023/06/16 08:18:21;;;;;;;6.10;4.28;;;27.40;42.40;;;;;;5040228;28;20051;-72
2023/06/16 08:20:47;;;;;;;5.00;4.50;;;27.60;41.90;;;;;;5040684;28;20033;-72
2023/06/16 08:23:13;;;;;;;5.32;4.78;;;27.60;41.40;;;;;;5044271;28;20099;-74
2023/06/16 08:25:39;;;;;;;5.68;4.35;;;27.70;41.40;;;;;;5036318;28;20049;-73
2023/06/16 08:28:07;;;;;;;5.65;4.40;;;28.10;40.90;;;;;;5042182;28;20041;-73
2023/06/16 08:30:34;;;;;;;6.57;3.97;;;28.20;40.70;;;;;;5039824;28;20099;-73
2023/06/16 08:33:00;;;;;;;5.30;3.90;;;28.50;40.50;;;;;;5038148;28;20053;-72
2023/06/16 08:35:25;;;;;;;5.35;4.00;;;28.80;39.60;;;;;;5045186;28;20487;-71
2023/06/16 08:37:51;;;;;;;6.07;4.45;;;28.90;38.90;;;;;;5044210;28;20044;-74
2023/06/16 08:40:16;;;;;;;5.95;4.95;;;29.10;38.40;;;;;;5046297;28;20041;-74
2023/06/16 08:42:42;;;;;;;4.50;4.10;;;29.30;37.90;;;;;;5051164;28;20036;-73
2023/06/16 08:45:09;;;;;;;5.82;3.85;;;29.50;37.80;;;;;;5038224;28;20038;-71
2023/06/16 08:47:38;;;;;;;5.05;3.90;;;29.80;37.40;;;;;;5033921;28;20063;-74
2023/06/16 08:50:07;;;;;;;4.15;3.75;;;30.10;36.70;;;;;;5046217;28;21285;-73
2023/06/16 08:52:38;;;;;;;4.85;4.00;;;30.30;36.00;;;;;;5026062;28;20080;-73
2023/06/16 08:55:09;;;;;;;6.25;4.30;;;30.40;35.60;;;;;;5031914;28;20428;-74
2023/06/16 08:57:41;;;;;;;4.40;3.85;;;30.60;35.10;;;;;;5012860;28;20091;-71
2023/06/16 09:00:09;;;;;;;5.07;3.70;;;30.80;34.30;;;;;;5030873;28;20075;-75
2023/06/16 09:02:36;;;;;;;4.05;3.65;;;31.20;34.20;;;;;;5035219;28;20392;-73
2023/06/16 09:05:03;;;;;;;3.95;3.55;;;31.40;33.30;;;;;;5036653;28;20059;-74
2023/06/16 09:07:29;;;;;;;3.95;3.55;;;31.50;32.70;;;;;;5020324;28;20076;-73
2023/06/16 09:09:55;;;;;;;4.88;4.07;;;31.70;32.30;;;;;;5040977;28;20136;-72
2023/06/16 09:12:21;;;;;;;6.63;4.55;;;31.90;32.00;;;;;;5048490;28;20049;-72
2023/06/16 09:14:49;;;;;;;4.80;4.32;;;32.10;31.70;;;;;;5047499;28;20041;-73
2023/06/16 09:17:21;;;;;;;6.70;4.70;;;32.40;31.60;;;;;;5046747;28;20089;-72
2023/06/16 09:19:51;;;;;;;5.05;4.55;;;32.80;31.30;;;;;;5051271;28;20136;-74
2023/06/16 09:22:18;;;;;;;5.88;4.18;;;32.70;30.80;;;;;;5040503;28;20053;-75
2023/06/16 09:24:52;;;;;;;4.22;3.80;;;32.80;30.90;;;;;;5030750;28;20124;-72
2023/06/16 09:27:18;;;;;;;3.65;3.35;;;33.10;30.60;;;;;;5030176;28;20048;-73
2023/06/16 09:29:56;;;;;;;4.82;3.60;;;33.30;29.90;;;;;;5030206;28;20160;-74
2023/06/16 09:32:22;;;;;;;5.15;3.42;;;33.30;28.90;;;;;;5031370;28;20462;-74
2023/06/16 09:34:47;;;;;;;6.75;4.03;;;33.60;28.80;;;;;;5038464;28;20044;-75
2023/06/16 09:37:18;;;;;;;3.70;3.30;;;34.00;28.30;;;;;;5032896;28;20481;-73
2023/06/16 09:39:44;;;;;;;3.72;3.10;;;34.20;27.80;;;;;;5045852;28;20056;-75
2023/06/16 09:42:16;;;;;;;4.70;3.65;;;34.50;27.80;;;;;;5040410;28;20044;-74
2023/06/16 09:44:42;;;;;;;3.58;3.28;;;34.60;27.50;;;;;;5047535;28;20037;-75
2023/06/16 09:47:12;;;;;;;3.65;3.20;;;35.10;26.80;;;;;;5047339;28;20061;-74
2023/06/16 09:49:37;;;;;;;4.97;3.28;;;35.00;25.50;;;;;;5033682;28;20702;-74
2023/06/16 09:52:03;;;;;;;3.92;3.20;;;35.00;25.80;;;;;;5030616;28;20076;-74
2023/06/16 09:54:29;;;;;;;4.30;3.00;;;35.30;25.40;;;;;;5047097;28;20041;-73
2023/06/16 09:56:55;;;;;;;4.53;3.50;;;35.40;24.80;;;;;;5047650;28;20084;-74
2023/06/16 09:59:23;;;;;;;4.03;3.00;;;35.90;24.30;;;;;;5046537;28;20041;-75
2023/06/16 10:01:51;;;;;;;4.90;2.72;;;36.00;23.60;;;;;;5048839;28;20044;-74
2023/06/16 10:04:17;;;;;;;9.25;3.00;;;36.20;23.20;;;;;;5025746;28;20105;-71
2023/06/16 10:07:00;;;;;;;6.15;2.35;;;36.40;22.80;;;;;;5024311;28;20101;-74
2023/06/16 10:09:44;;;;;;;2.53;2.33;;;36.20;22.30;;;;;;5043049;28;20113;-73
2023/06/16 10:12:12;;;;;;;2.60;2.40;;;36.50;22.30;;;;;;5029710;28;20049;-74
2023/06/16 10:14:40;;;;;;;2.80;2.60;;;36.90;22.10;;;;;;5036867;28;20037;-75
2023/06/16 10:17:09;;;;;;;4.80;2.65;;;37.10;21.80;;;;;;5033149;28;20100;-70
2023/06/16 10:19:37;;;;;;;4.35;2.78;;;36.90;21.50;;;;;;5042767;28;20045;-73
2023/06/16 10:22:04;;;;;;;2.75;2.55;;;37.00;21.60;;;;;;5028239;28;20041;-73
2023/06/16 10:24:30;;;;;;;4.53;2.50;;;36.60;21.50;;;;;;5031741;28;20064;-73
2023/06/16 10:26:57;;;;;;;4.20;2.38;;;37.10;21.30;;;;;;5029375;28;20076;-75
2023/06/16 10:29:25;;;;;;;2.05;1.95;;;37.40;21.00;;;;;;5038074;28;20450;-71
2023/06/16 10:32:06;;;;;;;3.35;2.53;;;38.10;20.80;;;;;;5045294;28;20384;-74
2023/06/16 10:34:34;;;;;;;2.80;2.50;;;37.90;20.60;;;;;;5038337;28;20343;-74
2023/06/16 10:37:00;;;;;;;2.85;2.33;;;38.30;20.30;;;;;;5015464;28;20036;-76
2023/06/16 10:39:26;;;;;;;4.28;2.83;;;38.40;20.10;;;;;;5034596;28;20583;-76
2023/06/16 10:41:57;;;;;;;3.55;2.50;;;38.60;19.90;;;;;;5025332;28;20094;-72
2023/06/16 10:44:30;;;;;;;3.42;2.58;;;38.50;19.30;;;;;;5030844;28;20145;-73
2023/06/16 10:47:08;;;;;;;2.63;2.42;;;38.60;19.40;;;;;;5025803;28;20084;-72
2023/06/16 10:49:57;;;;;;;2.60;2.40;;;38.70;19.70;;;;;;5060498;28;20041;-74
2023/06/16 10:52:50;;;;;;;4.50;2.70;;;38.70;19.40;;;;;;5033470;28;20037;-73
2023/06/16 10:55:25;;;;;;;3.33;2.22;;;38.40;19.30;;;;;;5043317;28;20040;-73
2023/06/16 10:58:20;;;;;;;3.55;2.72;;;37.60;19.80;;;;;;5033110;28;20072;-73
2023/06/16 11:00:58;;;;;;;2.50;2.30;;;36.20;20.20;;;;;;5038634;28;20044;-72
2023/06/16 11:03:45;;;;;;;3.30;2.50;;;35.20;21.10;;;;;;5044815;28;20047;-73
2023/06/16 11:06:11;;;;;;;3.42;2.72;;;34.20;21.80;;;;;;5037001;28;20041;-76
2023/06/16 11:08:54;;;;;;;3.30;2.58;;;33.30;22.90;;;;;;5012912;28;20052;-73
2023/06/16 11:11:20;;;;;;;3.08;2.70;;;32.60;23.00;;;;;;5038405;28;20045;-73
2023/06/16 11:13:47;;;;;;;2.58;2.30;;;32.20;24.00;;;;;;5047008;28;20036;-72
2023/06/16 11:16:12;;;;;;;2.88;2.58;;;31.70;24.40;;;;;;5039867;28;20421;-72
2023/06/16 11:18:38;;;;;;;3.90;2.70;;;31.40;24.60;;;;;;5034979;28;20041;-72
2023/06/16 11:21:08;;;;;;;4.47;2.30;;;31.30;24.60;;;;;;5034782;28;20045;-71
2023/06/16 11:23:34;;;;;;;3.72;2.50;;;31.10;24.60;;;;;;5033023;28;20125;-73
2023/06/16 11:26:03;;;;;;;9.02;3.00;;;30.70;24.80;;;;;;5035643;28;20124;-73
2023/06/16 11:28:29;;;;;;;4.70;2.40;;;30.60;25.10;;;;;;5038397;28;20051;-72
2023/06/16 11:30:55;;;;;;;2.53;2.33;;;30.50;25.30;;;;;;5036420;28;20060;-72
2023/06/16 11:33:22;;;;;;;4.22;2.80;;;30.40;25.30;;;;;;5033522;28;20064;-72
2023/06/16 11:35:48;;;;;;;3.20;2.72;;;30.40;25.40;;;;;;5047623;28;20072;-71
2023/06/16 11:38:22;;;;;;;4.15;2.75;;;30.20;25.50;;;;;;5031256;28;20080;-70
2023/06/16 11:40:48;;;;;;;4.75;2.28;;;30.10;25.50;;;;;;5034175;28;20489;-71
2023/06/16 11:43:16;;;;;;;4.00;2.33;;;30.10;25.50;;;;;;5039076;28;20041;-70
2023/06/16 11:45:41;;;;;;;7.63;2.78;;;30.00;25.40;;;;;;5033198;28;20041;-72
2023/06/16 11:48:08;;;;;;;6.53;2.63;;;30.00;25.50;;;;;;5040537;28;20118;-71
2023/06/16 11:50:35;;;;;;;3.08;2.47;;;30.00;25.50;;;;;;5043070;28;20121;-71
2023/06/16 11:53:01;;;;;;;2.65;2.33;;;30.10;25.40;;;;;;5039645;28;20099;-71
2023/06/16 11:55:27;;;;;;;3.45;2.50;;;30.00;25.30;;;;;;5039847;28;20192;-69
2023/06/16 11:57:53;;;;;;;2.90;2.55;;;30.10;25.60;;;;;;5039423;28;20372;-70
2023/06/16 12:00:21;;;;;;;7.45;2.60;;;30.10;25.60;;;;;;5047359;28;20036;-71
2023/06/16 12:02:48;;;;;;;3.17;2.50;;;30.10;25.50;;;;;;5032587;28;20116;-70
2023/06/16 12:05:32;;;;;;;3.40;2.42;;;30.10;25.40;;;;;;5029482;28;20033;-71
2023/06/16 12:07:57;;;;;;;2.80;2.25;;;30.30;25.60;;;;;;5041954;28;20041;-69
2023/06/16 12:10:24;;;;;;;2.75;2.55;;;30.30;25.30;;;;;;5028102;28;20048;-69
2023/06/16 12:12:50;;;;;;;4.72;2.97;;;30.30;25.30;;;;;;5033290;28;20049;-71
2023/06/16 12:15:17;;;;;;;7.97;2.42;;;30.30;25.30;;;;;;5044058;28;20090;-69
2023/06/16 12:17:43;;;;;;;3.92;2.30;;;30.50;25.60;;;;;;5032857;28;20558;-70
2023/06/16 12:20:13;;;;;;;6.18;2.80;;;30.60;25.50;;;;;;5034538;28;20132;-70
2023/06/16 12:22:39;;;;;;;4.15;2.58;;;30.90;25.20;;;;;;5019885;28;20063;-70
2023/06/16 12:25:13;;;;;;;3.92;2.58;;;31.80;24.90;;;;;;5042507;28;20095;-70
2023/06/16 12:27:44;;;;;;;4.35;2.33;;;33.20;24.20;;;;;;5024457;28;20036;-71
2023/06/16 12:30:13;;;;;;;5.10;2.60;;;34.90;23.10;;;;;;5033433;28;20042;-70
2023/06/16 12:32:41;;;;;;;2.95;2.28;;;36.30;21.90;;;;;;5024801;28;20446;-69
2023/06/16 12:35:07;;;;;;;6.22;2.88;;;36.10;21.10;;;;;;5014359;28;20147;-69
2023/06/16 12:37:33;;;;;;;13.82;3.67;;;36.20;21.00;;;;;;5038829;28;20487;-70
2023/06/16 12:40:06;;;;;;;4.63;2.25;;;36.90;20.90;;;;;;5032436;28;20116;-71
2023/06/16 12:42:32;;;;;;;3.72;2.55;;;37.20;20.00;;;;;;5038230;28;20374;-70
2023/06/16 12:45:01;;;;;;;3.05;2.15;;;37.40;20.20;;;;;;5042067;28;20125;-71